Allison, Iowa
Current Conditions -  °F | °C
As of 4:55 PM on Saturday 25 Oct 2014 (Local Time) from KCCY Reporting Station
Clear Clear  
Wind Chill: 64°   Ceiling: Unl
Heat Index: 64°   Visibility: 10mi
Dew Point: 30°   Wind: 13mph
Humidity: 28%   Direction: 320°NW
Pressure: 30.06"   Gusts: NA
Location:  42.75°N, 92.8°W
Report Text: KCCY 252155Z AUTO 32011KT 10SM CLR 18/M01 A3006 RMK AO2
Loading
Personal Weather Stations






























Interactive Weather Map
Tropical Storm Tracking
New forecast layout! Learn more

10-Day Weather Forecast

Advertisements
Track Severe Weather on mobile